Time;durP1;ratioP1;P1;durP2;ratioP2;P2;SDS_P1;SDS_P2;PMS_P1;PMS_P2;Temp;Humidity;BMP_temperature;BMP_pressure;BME280_temperature;BME280_humidity;BME280_pressure;Samples;Min_cycle;Max_cycle;Signal;HPM_P1;HPM_P2
2023/12/18 04:02:04;;;;;;;3.30;3.00;;;23.70;25.50;;;;;;5181650;22;45843;-82
2023/12/18 04:04:30;;;;;;;3.92;3.33;;;23.60;25.50;;;;;;4955415;28;44922;-82
2023/12/18 04:06:56;;;;;;;3.67;3.17;;;23.60;25.50;;;;;;4962646;28;45404;-82
2023/12/18 04:09:21;;;;;;;3.13;2.80;;;23.60;25.50;;;;;;4964886;28;45621;-82
2023/12/18 04:11:48;;;;;;;3.50;3.20;;;23.60;25.50;;;;;;4933019;28;46418;-82
2023/12/18 04:14:14;;;;;;;3.73;3.40;;;23.60;25.50;;;;;;4944783;28;45389;-82
2023/12/18 04:16:40;;;;;;;3.60;3.30;;;23.60;25.50;;;;;;4958448;28;45378;-82
2023/12/18 04:19:06;;;;;;;3.45;3.15;;;23.50;25.50;;;;;;4967232;28;45517;-83
2023/12/18 04:21:31;;;;;;;3.30;3.00;;;23.60;25.50;;;;;;4929388;28;45943;-82
2023/12/18 04:23:57;;;;;;;3.30;3.00;;;23.60;25.50;;;;;;4966217;28;45553;-82
2023/12/18 04:26:23;;;;;;;3.30;3.00;;;23.50;25.90;;;;;;4958118;28;45541;-82
2023/12/18 04:28:49;;;;;;;3.90;3.50;;;23.50;25.50;;;;;;4938530;28;45575;-83
2023/12/18 04:31:19;;;;;;;3.40;2.93;;;23.50;25.50;;;;;;4923345;28;47198;-83
2023/12/18 04:33:45;;;;;;;3.90;3.30;;;23.50;25.50;;;;;;4962497;28;44940;-82
2023/12/18 04:36:11;;;;;;;3.47;3.17;;;23.50;26.00;;;;;;4943780;28;45619;-82
2023/12/18 04:38:37;;;;;;;3.58;3.28;;;23.50;25.50;;;;;;4946249;28;45394;-82
2023/12/18 04:41:03;;;;;;;3.47;3.17;;;23.50;25.50;;;;;;4959153;28;45315;-83
2023/12/18 04:43:29;;;;;;;3.72;3.22;;;23.50;25.50;;;;;;4949245;28;45631;-82
2023/12/18 04:45:55;;;;;;;3.77;3.20;;;23.50;25.50;;;;;;4956572;28;45475;-82
2023/12/18 04:48:20;;;;;;;3.33;3.03;;;23.50;25.50;;;;;;4944963;28;45541;-83
2023/12/18 04:50:46;;;;;;;3.50;3.20;;;23.50;25.50;;;;;;4923960;28;47015;-82
2023/12/18 04:53:12;;;;;;;3.35;3.05;;;23.50;25.50;;;;;;4964372;28;45360;-82
2023/12/18 04:55:38;;;;;;;3.57;3.23;;;23.40;25.50;;;;;;4949350;28;45297;-82
2023/12/18 04:58:04;;;;;;;3.27;2.97;;;23.40;25.50;;;;;;4980966;28;45673;-82
2023/12/18 05:00:30;;;;;;;3.58;3.28;;;23.40;25.50;;;;;;4951938;28;46645;-82
2023/12/18 05:02:56;;;;;;;3.57;3.27;;;23.40;25.50;;;;;;4984462;28;45635;-82
2023/12/18 05:05:22;;;;;;;3.55;3.25;;;23.40;25.50;;;;;;4957654;28;45683;-83
2023/12/18 05:07:48;;;;;;;3.30;3.00;;;23.40;25.50;;;;;;4977730;28;44988;-81
2023/12/18 05:10:14;;;;;;;3.55;3.00;;;23.40;25.50;;;;;;4957381;28;45482;-83
2023/12/18 05:12:41;;;;;;;3.58;3.10;;;23.40;25.60;;;;;;4938928;28;45442;-82
2023/12/18 05:15:07;;;;;;;3.75;3.00;;;23.40;25.50;;;;;;4958770;28;45551;-83
2023/12/18 05:17:33;;;;;;;3.37;3.07;;;23.30;25.50;;;;;;4944998;28;45832;-83
2023/12/18 05:19:59;;;;;;;3.80;3.00;;;23.40;25.50;;;;;;4962953;28;45877;-82
2023/12/18 05:22:25;;;;;;;3.95;3.17;;;23.30;25.50;;;;;;4942721;28;45011;-82
2023/12/18 05:24:51;;;;;;;3.85;3.30;;;23.30;25.50;;;;;;4982070;28;45467;-83
2023/12/18 05:27:17;;;;;;;3.35;3.05;;;23.40;26.00;;;;;;4944100;28;45232;-83
2023/12/18 05:29:43;;;;;;;3.07;2.77;;;23.40;25.60;;;;;;4950059;28;45957;-82
2023/12/18 05:32:09;;;;;;;3.25;2.95;;;23.40;25.60;;;;;;4944615;28;45757;-83
2023/12/18 05:34:35;;;;;;;3.40;3.10;;;23.30;25.50;;;;;;4963118;28;45096;-82
2023/12/18 05:37:02;;;;;;;3.37;3.07;;;23.30;25.50;;;;;;4944600;28;45150;-82
2023/12/18 05:39:28;;;;;;;3.28;2.90;;;23.30;25.50;;;;;;4945630;28;47417;-82
2023/12/18 05:41:54;;;;;;;3.60;3.30;;;23.30;25.50;;;;;;4943809;28;45469;-83
2023/12/18 05:44:19;;;;;;;3.30;2.90;;;23.30;25.60;;;;;;4948652;28;45509;-83
2023/12/18 05:46:45;;;;;;;3.38;2.95;;;23.20;25.50;;;;;;4944521;28;45500;-83
2023/12/18 05:49:11;;;;;;;3.30;3.00;;;23.30;25.60;;;;;;4948892;28;46393;-83
2023/12/18 05:51:37;;;;;;;3.47;3.00;;;23.30;26.10;;;;;;4923895;28;45292;-82
2023/12/18 05:54:03;;;;;;;3.88;3.20;;;23.30;25.60;;;;;;4946341;28;45636;-83
2023/12/18 05:56:29;;;;;;;3.57;3.10;;;23.20;25.50;;;;;;4973609;28;45621;-83
2023/12/18 05:58:57;;;;;;;3.35;3.00;;;23.20;25.60;;;;;;4942684;28;47154;-83
2023/12/18 06:01:23;;;;;;;3.97;3.30;;;23.30;25.60;;;;;;4943458;28;45965;-83
2023/12/18 06:03:49;;;;;;;3.57;3.20;;;23.20;25.60;;;;;;4963703;28;45454;-83
2023/12/18 06:06:15;;;;;;;3.42;2.97;;;23.20;25.50;;;;;;4976166;28;45671;-83
2023/12/18 06:08:41;;;;;;;3.40;3.10;;;23.20;25.60;;;;;;4945239;28;45465;-82
2023/12/18 06:11:07;;;;;;;3.60;3.17;;;23.20;25.60;;;;;;4957384;28;45255;-83
2023/12/18 06:13:34;;;;;;;3.97;3.28;;;23.10;25.60;;;;;;4944037;28;60983;-82
2023/12/18 06:16:00;;;;;;;3.70;3.13;;;23.10;25.50;;;;;;4938113;28;44837;-82
2023/12/18 06:18:26;;;;;;;3.97;3.45;;;23.10;25.50;;;;;;4947036;28;47329;-83
2023/12/18 06:20:52;;;;;;;4.00;3.22;;;23.10;25.60;;;;;;4939465;28;45407;-82
2023/12/18 06:23:18;;;;;;;3.97;3.50;;;23.10;25.60;;;;;;4959110;28;45258;-82
2023/12/18 06:25:44;;;;;;;3.40;3.10;;;23.20;25.60;;;;;;4945734;28;45303;-82
2023/12/18 06:28:10;;;;;;;3.90;3.50;;;23.10;25.60;;;;;;4944497;28;45973;-82
2023/12/18 06:30:36;;;;;;;3.40;3.05;;;23.10;25.60;;;;;;4954721;28;45254;-83
2023/12/18 06:33:02;;;;;;;4.70;3.30;;;23.10;25.80;;;;;;4966805;28;45359;-83
2023/12/18 06:35:28;;;;;;;4.05;3.30;;;23.10;25.60;;;;;;4938712;28;46044;-82
2023/12/18 06:37:54;;;;;;;4.13;3.05;;;23.10;25.60;;;;;;4945363;28;46932;-83
2023/12/18 06:40:20;;;;;;;3.40;3.07;;;23.10;25.60;;;;;;4973225;28;45503;-82
2023/12/18 06:42:46;;;;;;;3.53;3.08;;;23.10;25.60;;;;;;4941203;28;47092;-83
2023/12/18 06:45:11;;;;;;;3.65;3.00;;;23.10;25.60;;;;;;4935453;28;46389;-82
2023/12/18 06:47:37;;;;;;;3.97;3.30;;;23.10;25.60;;;;;;4941670;28;46643;-82
2023/12/18 06:50:03;;;;;;;3.50;3.10;;;23.00;25.60;;;;;;4930823;28;45612;-81
2023/12/18 06:52:29;;;;;;;3.35;3.05;;;23.00;25.60;;;;;;4933004;28;45649;-83
2023/12/18 06:54:55;;;;;;;3.75;3.15;;;23.00;25.60;;;;;;4963014;28;45794;-83
2023/12/18 06:57:21;;;;;;;3.25;2.95;;;23.10;25.60;;;;;;4967778;28;45697;-83
2023/12/18 06:59:47;;;;;;;4.05;3.13;;;23.00;25.60;;;;;;4928255;28;45441;-82
2023/12/18 07:02:13;;;;;;;3.90;3.10;;;23.00;25.60;;;;;;4934422;28;45383;-82
2023/12/18 07:04:38;;;;;;;3.97;3.17;;;23.00;25.60;;;;;;4962083;28;45152;-83
2023/12/18 07:07:04;;;;;;;3.45;2.88;;;23.00;25.60;;;;;;4929254;28;46123;-83
2023/12/18 07:09:30;;;;;;;3.35;2.80;;;23.00;25.60;;;;;;4960158;28;45347;-83
2023/12/18 07:11:56;;;;;;;3.30;2.80;;;22.90;25.60;;;;;;4956777;28;45908;-82
2023/12/18 07:14:22;;;;;;;3.20;2.90;;;23.00;25.60;;;;;;4957433;28;45409;-82
2023/12/18 07:16:48;;;;;;;4.23;2.90;;;22.90;25.60;;;;;;4954578;28;46346;-84
2023/12/18 07:19:15;;;;;;;3.33;2.85;;;22.90;25.60;;;;;;4934800;28;46290;-82
2023/12/18 07:21:41;;;;;;;5.28;3.05;;;22.90;25.60;;;;;;4961205;28;45824;-83
2023/12/18 07:24:07;;;;;;;3.20;2.90;;;22.90;25.60;;;;;;4961391;28;45453;-83
2023/12/18 07:26:33;;;;;;;3.22;2.65;;;22.90;25.60;;;;;;4954280;28;46208;-83
2023/12/18 07:28:59;;;;;;;3.20;2.90;;;22.90;25.60;;;;;;4930709;28;45532;-82
2023/12/18 07:31:24;;;;;;;4.27;2.90;;;22.90;25.60;;;;;;4968983;28;45403;-83
2023/12/18 07:33:50;;;;;;;4.03;2.67;;;22.90;25.60;;;;;;4940092;28;45856;-83
2023/12/18 07:36:17;;;;;;;3.38;3.08;;;22.90;25.60;;;;;;4955859;28;46200;-83
2023/12/18 07:38:45;;;;;;;3.72;2.80;;;22.90;25.60;;;;;;4963820;28;45580;-82
2023/12/18 07:41:11;;;;;;;4.70;2.90;;;22.90;25.60;;;;;;4960295;28;45228;-82
2023/12/18 07:43:37;;;;;;;4.07;3.00;;;22.90;25.60;;;;;;4966792;28;45180;-83
2023/12/18 07:46:03;;;;;;;3.20;2.90;;;22.90;25.60;;;;;;4959407;28;45734;-83
2023/12/18 07:48:29;;;;;;;3.30;3.00;;;22.90;25.70;;;;;;4947402;28;45437;-82
2023/12/18 07:50:55;;;;;;;3.63;2.70;;;22.80;25.60;;;;;;4947113;28;45679;-83
2023/12/18 07:53:21;;;;;;;3.22;2.78;;;22.90;25.70;;;;;;4941216;28;45284;-83
2023/12/18 07:55:47;;;;;;;3.22;2.92;;;22.80;25.60;;;;;;4947588;28;47285;-83
2023/12/18 07:58:13;;;;;;;2.87;2.67;;;22.80;25.60;;;;;;4949734;28;45036;-83
2023/12/18 08:00:38;;;;;;;2.90;2.60;;;22.80;25.60;;;;;;4956729;28;45453;-83
2023/12/18 08:03:05;;;;;;;3.00;2.60;;;22.80;25.60;;;;;;4952929;28;45263;-83
2023/12/18 08:05:31;;;;;;;3.60;2.93;;;22.80;25.70;;;;;;4941403;28;45414;-83
2023/12/18 08:07:57;;;;;;;3.00;2.70;;;22.80;25.70;;;;;;4970798;28;45541;-83
2023/12/18 08:10:24;;;;;;;3.03;2.72;;;22.70;25.60;;;;;;4978498;28;45249;-83
2023/12/18 08:12:50;;;;;;;3.40;2.90;;;22.70;25.70;;;;;;4963264;28;45478;-84
2023/12/18 08:15:16;;;;;;;3.30;2.80;;;22.70;25.60;;;;;;4956783;28;45338;-84
2023/12/18 08:17:42;;;;;;;3.00;2.53;;;22.70;25.60;;;;;;4957000;28;45275;-83
2023/12/18 08:20:09;;;;;;;2.97;2.67;;;22.70;25.70;;;;;;4927998;28;45052;-83
2023/12/18 08:22:35;;;;;;;3.03;2.73;;;22.70;25.70;;;;;;4950968;28;46498;-83
2023/12/18 08:25:02;;;;;;;3.35;3.00;;;22.70;26.20;;;;;;4950540;28;47421;-84
2023/12/18 08:27:33;;;;;;;3.58;2.90;;;22.70;25.70;;;;;;4949082;28;45384;-83
2023/12/18 08:29:59;;;;;;;3.30;3.00;;;22.70;25.70;;;;;;4966851;28;45197;-83
2023/12/18 08:32:25;;;;;;;3.27;2.97;;;22.70;25.70;;;;;;4949108;28;45371;-83
2023/12/18 08:34:51;;;;;;;3.28;2.95;;;22.70;25.70;;;;;;4962591;28;46246;-83
2023/12/18 08:37:17;;;;;;;2.92;2.63;;;22.70;25.70;;;;;;4932531;28;45411;-83
2023/12/18 08:39:43;;;;;;;2.87;2.57;;;22.70;25.70;;;;;;4949587;28;44937;-83
2023/12/18 08:42:09;;;;;;;2.80;2.60;;;22.70;25.80;;;;;;4962821;28;46157;-83
2023/12/18 08:44:35;;;;;;;4.13;2.55;;;22.70;25.80;;;;;;4965844;28;45549;-82
2023/12/18 08:47:02;;;;;;;3.00;2.70;;;22.60;25.70;;;;;;4944631;28;45541;-83
2023/12/18 08:49:28;;;;;;;3.05;2.70;;;22.70;25.80;;;;;;4959638;28;45564;-83
2023/12/18 08:51:53;;;;;;;3.30;3.00;;;22.70;25.80;;;;;;4921443;28;45631;-83
2023/12/18 08:54:19;;;;;;;5.17;3.30;;;22.60;25.70;;;;;;4954104;28;46109;-83
2023/12/18 08:56:47;;;;;;;3.20;2.90;;;22.60;25.80;;;;;;4959241;28;45356;-82
2023/12/18 08:59:13;;;;;;;3.10;2.80;;;22.60;25.80;;;;;;4966127;28;45447;-83
2023/12/18 09:01:39;;;;;;;3.88;2.90;;;22.60;25.80;;;;;;4937033;28;45466;-82
2023/12/18 09:04:06;;;;;;;3.13;2.83;;;22.60;25.80;;;;;;4949496;28;45377;-83
2023/12/18 09:06:34;;;;;;;3.10;2.80;;;22.60;25.80;;;;;;4962244;28;45309;-83
2023/12/18 09:09:01;;;;;;;3.10;2.80;;;22.60;25.80;;;;;;4965431;28;44856;-83
2023/12/18 09:11:29;;;;;;;3.10;2.80;;;22.60;25.80;;;;;;4959395;28;45045;-83
2023/12/18 09:13:56;;;;;;;2.92;2.72;;;22.60;25.80;;;;;;4948121;28;45630;-83
2023/12/18 09:16:22;;;;;;;3.00;2.70;;;22.60;25.80;;;;;;4942781;28;44993;-82
2023/12/18 09:18:47;;;;;;;3.20;2.90;;;22.60;25.80;;;;;;4959606;28;45499;-83
2023/12/18 09:21:13;;;;;;;3.30;3.00;;;22.60;25.80;;;;;;4942810;28;45610;-82
2023/12/18 09:23:40;;;;;;;3.28;2.80;;;22.50;25.80;;;;;;4948606;28;47308;-82
2023/12/18 09:26:07;;;;;;;3.07;2.77;;;22.50;25.80;;;;;;4979486;28;45288;-82
2023/12/18 09:28:33;;;;;;;3.00;2.72;;;22.50;25.80;;;;;;4964223;28;46283;-83
2023/12/18 09:30:59;;;;;;;3.20;2.90;;;22.50;25.80;;;;;;4938843;28;45248;-83
2023/12/18 09:33:25;;;;;;;3.20;2.92;;;22.50;25.80;;;;;;4929786;28;46023;-82
2023/12/18 09:35:51;;;;;;;3.60;3.10;;;22.50;25.90;;;;;;4927442;28;45289;-83
2023/12/18 09:38:16;;;;;;;3.35;3.05;;;22.50;25.80;;;;;;4949512;28;45563;-83
2023/12/18 09:40:44;;;;;;;3.40;3.10;;;22.50;25.90;;;;;;4930927;28;45498;-82
2023/12/18 09:43:15;;;;;;;3.53;3.10;;;22.50;25.90;;;;;;4963520;28;45770;-82
2023/12/18 09:45:41;;;;;;;3.60;3.28;;;22.50;25.90;;;;;;4942952;28;45601;-82
2023/12/18 09:48:08;;;;;;;4.23;3.47;;;22.50;25.90;;;;;;4948214;28;45367;-82
2023/12/18 09:50:34;;;;;;;3.83;3.53;;;22.40;25.90;;;;;;4940246;28;45448;-82
2023/12/18 09:53:08;;;;;;;3.92;3.53;;;22.40;25.90;;;;;;4966481;28;46157;-82
2023/12/18 09:55:34;;;;;;;4.23;3.83;;;22.40;26.40;;;;;;4974589;28;46061;-82
2023/12/18 09:58:02;;;;;;;4.10;3.70;;;22.40;25.90;;;;;;4947908;28;45067;-82
2023/12/18 10:00:28;;;;;;;4.32;3.92;;;22.40;26.00;;;;;;4950841;28;45342;-81
2023/12/18 10:02:57;;;;;;;4.18;3.78;;;22.40;25.90;;;;;;4927388;28;45454;-83
2023/12/18 10:05:23;;;;;;;4.20;3.80;;;22.40;25.90;;;;;;4943491;28;45354;-82
2023/12/18 10:07:49;;;;;;;3.90;3.50;;;22.40;25.90;;;;;;4945974;28;45308;-82
2023/12/18 10:10:15;;;;;;;3.78;3.47;;;22.40;25.90;;;;;;4951639;28;45555;-82
2023/12/18 10:12:41;;;;;;;3.80;3.40;;;22.40;26.00;;;;;;4947643;28;46356;-82
2023/12/18 10:15:11;;;;;;;3.90;3.60;;;22.40;26.00;;;;;;4943883;28;45637;-82
2023/12/18 10:17:43;;;;;;;4.25;3.85;;;22.40;26.00;;;;;;4978842;28;45525;-83
2023/12/18 10:20:09;;;;;;;3.83;3.43;;;22.40;26.10;;;;;;4947959;28;45616;-83
2023/12/18 10:22:35;;;;;;;4.07;3.70;;;22.40;26.10;;;;;;4944671;28;46515;-83
2023/12/18 10:25:02;;;;;;;4.03;3.63;;;22.40;26.10;;;;;;4926272;28;48178;-82
2023/12/18 10:27:31;;;;;;;4.15;3.75;;;22.40;26.10;;;;;;4948270;28;46011;-83
2023/12/18 10:29:57;;;;;;;4.10;3.70;;;22.40;26.10;;;;;;4962280;28;45477;-82
2023/12/18 10:32:23;;;;;;;4.05;3.65;;;22.40;26.10;;;;;;4935984;28;46117;-83
2023/12/18 10:34:50;;;;;;;3.90;3.60;;;22.50;26.10;;;;;;4947660;28;45094;-82
2023/12/18 10:37:17;;;;;;;4.10;3.70;;;22.40;26.10;;;;;;4946657;28;45124;-83
2023/12/18 10:39:43;;;;;;;4.10;3.70;;;22.40;26.10;;;;;;4964302;28;45646;-83
2023/12/18 10:42:14;;;;;;;4.28;3.88;;;22.50;26.20;;;;;;4941202;28;46418;-83
2023/12/18 10:44:40;;;;;;;3.70;3.40;;;22.50;26.20;;;;;;4959897;28;45536;-83
2023/12/18 10:47:06;;;;;;;4.20;3.80;;;22.50;26.20;;;;;;4938112;28;45548;-82
2023/12/18 10:49:33;;;;;;;4.07;3.67;;;22.50;26.20;;;;;;4928080;28;45043;-83
2023/12/18 10:51:58;;;;;;;4.10;3.70;;;22.50;26.20;;;;;;4960926;28;46385;-83
2023/12/18 10:54:24;;;;;;;3.60;3.30;;;22.50;26.20;;;;;;4917110;28;45379;-83
2023/12/18 10:56:50;;;;;;;3.70;3.40;;;22.60;26.20;;;;;;4928366;28;45571;-82
2023/12/18 10:59:16;;;;;;;4.20;3.53;;;22.60;26.20;;;;;;4952598;28;45305;-82
2023/12/18 11:01:41;;;;;;;4.10;3.70;;;22.60;26.30;;;;;;4950189;28;46036;-82
2023/12/18 11:04:08;;;;;;;3.80;3.50;;;22.60;26.30;;;;;;4962243;28;45389;-82
2023/12/18 11:06:34;;;;;;;4.00;3.60;;;22.60;26.30;;;;;;4950249;28;45143;-82
2023/12/18 11:09:00;;;;;;;3.80;3.45;;;22.70;26.30;;;;;;4956490;28;45795;-83
2023/12/18 11:11:26;;;;;;;3.63;3.33;;;22.70;26.30;;;;;;4938419;28;46342;-82
2023/12/18 11:14:07;;;;;;;4.00;3.40;;;22.70;26.30;;;;;;4979795;28;45048;-82
2023/12/18 11:16:44;;;;;;;3.90;3.60;;;22.70;26.30;;;;;;4960534;28;45509;-82
2023/12/18 11:19:33;;;;;;;3.97;3.35;;;22.70;26.30;;;;;;4969484;28;45537;-82
2023/12/18 11:22:04;;;;;;;3.85;3.45;;;22.70;26.30;;;;;;4947976;28;46506;-83
2023/12/18 11:24:37;;;;;;;4.77;3.70;;;22.70;26.30;;;;;;4951880;28;45440;-83
2023/12/18 11:27:06;;;;;;;3.80;3.45;;;22.80;26.80;;;;;;4946553;28;44869;-82
2023/12/18 11:29:43;;;;;;;3.60;3.30;;;22.80;26.80;;;;;;4935129;28;45567;-82
2023/12/18 11:32:11;;;;;;;4.38;3.70;;;22.80;26.30;;;;;;4961949;28;46319;-81
2023/12/18 11:34:40;;;;;;;3.47;3.17;;;22.80;26.30;;;;;;4955030;28;46138;-83
2023/12/18 11:37:10;;;;;;;3.90;3.60;;;22.90;26.30;;;;;;4963586;28;45667;-83
2023/12/18 11:39:41;;;;;;;4.30;3.20;;;22.90;26.30;;;;;;4969641;28;48586;-82
2023/12/18 11:42:07;;;;;;;3.70;3.20;;;22.90;26.30;;;;;;4947074;28;46737;-82
2023/12/18 11:44:36;;;;;;;3.87;3.20;;;22.90;26.30;;;;;;4957053;28;44836;-83
2023/12/18 11:47:02;;;;;;;3.17;2.88;;;23.00;26.80;;;;;;4950106;28;45325;-82
2023/12/18 11:49:29;;;;;;;3.60;3.30;;;23.00;26.40;;;;;;4956236;28;45693;-82
2023/12/18 11:51:58;;;;;;;4.40;3.42;;;23.10;26.40;;;;;;4968233;28;46847;-82
2023/12/18 11:54:24;;;;;;;3.27;2.97;;;23.00;26.40;;;;;;4954764;28;45506;-82
2023/12/18 11:56:51;;;;;;;5.22;3.10;;;23.10;26.40;;;;;;4947495;28;45602;-82
2023/12/18 11:59:18;;;;;;;3.17;2.87;;;23.10;26.30;;;;;;4953227;28;45734;-82
2023/12/18 12:01:45;;;;;;;3.60;3.30;;;23.10;26.30;;;;;;4947241;28;47053;-82
2023/12/18 12:04:12;;;;;;;3.70;3.40;;;23.20;26.40;;;;;;4963636;28;45611;-82
2023/12/18 12:06:38;;;;;;;3.63;3.03;;;23.20;26.40;;;;;;4937426;28;45613;-83
2023/12/18 12:09:06;;;;;;;3.30;3.00;;;23.20;26.40;;;;;;4967263;28;45370;-82
2023/12/18 12:11:31;;;;;;;4.40;3.38;;;23.30;26.40;;;;;;4947198;28;45305;-82
2023/12/18 12:13:57;;;;;;;3.35;3.05;;;23.30;26.40;;;;;;4977085;28;45910;-81
2023/12/18 12:16:23;;;;;;;3.67;3.03;;;23.30;26.30;;;;;;4947680;28;45367;-82
2023/12/18 12:18:50;;;;;;;3.50;3.20;;;23.30;26.30;;;;;;4971591;28;45514;-82
2023/12/18 12:21:17;;;;;;;3.42;3.00;;;23.40;26.30;;;;;;4939981;28;47097;-82
2023/12/18 12:23:47;;;;;;;3.47;3.17;;;23.40;26.30;;;;;;4935858;28;45698;-82
2023/12/18 12:26:13;;;;;;;3.30;3.00;;;23.40;26.30;;;;;;4949678;28;46031;-81
2023/12/18 12:28:41;;;;;;;3.08;2.80;;;23.50;26.30;;;;;;4937232;28;45465;-82
2023/12/18 12:31:07;;;;;;;3.72;3.15;;;23.50;26.30;;;;;;4957380;28;46418;-82
2023/12/18 12:33:43;;;;;;;3.28;2.97;;;23.50;26.30;;;;;;4969152;28;45431;-82
2023/12/18 12:36:09;;;;;;;3.63;3.28;;;23.60;26.30;;;;;;4974855;28;45577;-82
2023/12/18 12:38:36;;;;;;;3.13;2.83;;;23.60;26.20;;;;;;4944988;28;46526;-82
2023/12/18 12:41:03;;;;;;;3.40;2.90;;;23.70;26.30;;;;;;4962280;28;46719;-82
2023/12/18 12:43:29;;;;;;;3.22;2.85;;;23.70;26.20;;;;;;4970144;28;45183;-82
2023/12/18 12:45:56;;;;;;;3.88;3.20;;;23.70;26.10;;;;;;4959140;28;45173;-82
2023/12/18 12:48:23;;;;;;;3.13;2.83;;;23.80;26.10;;;;;;4951962;28;45329;-82
2023/12/18 12:50:48;;;;;;;3.30;2.93;;;23.80;26.10;;;;;;4944492;28;47017;-82
2023/12/18 12:53:14;;;;;;;3.10;2.80;;;23.80;26.10;;;;;;4943238;28;46200;-82
2023/12/18 12:55:41;;;;;;;3.45;3.13;;;23.90;26.10;;;;;;4962379;28;45108;-82
2023/12/18 12:58:07;;;;;;;3.00;2.78;;;23.90;26.10;;;;;;4949462;28;45226;-82
2023/12/18 13:00:33;;;;;;;2.92;2.72;;;24.00;26.10;;;;;;4960603;28;45401;-81
2023/12/18 13:02:59;;;;;;;2.88;2.67;;;23.90;26.00;;;;;;4949059;28;45583;-82
2023/12/18 13:05:25;;;;;;;3.00;2.70;;;24.00;26.00;;;;;;4934452;28;45833;-81
2023/12/18 13:07:52;;;;;;;2.90;2.60;;;24.00;26.00;;;;;;4943513;28;45774;-82
2023/12/18 13:10:18;;;;;;;3.42;2.67;;;24.00;26.00;;;;;;4963118;28;46353;-82
2023/12/18 13:12:44;;;;;;;2.93;2.67;;;24.10;26.00;;;;;;4967683;28;45338;-82
2023/12/18 13:15:09;;;;;;;3.13;2.45;;;24.10;26.00;;;;;;4912843;28;45064;-82
2023/12/18 13:17:35;;;;;;;2.70;2.50;;;24.10;25.90;;;;;;4934564;28;45648;-82
2023/12/18 13:20:02;;;;;;;3.10;2.80;;;24.10;25.90;;;;;;4964650;28;46240;-82
2023/12/18 13:22:28;;;;;;;3.00;2.70;;;24.10;25.90;;;;;;4951295;28;45159;-83
2023/12/18 13:24:54;;;;;;;2.95;2.63;;;24.10;26.40;;;;;;4947676;28;45361;-82
2023/12/18 13:27:19;;;;;;;2.92;2.63;;;24.20;26.00;;;;;;4928592;28;45286;-81
2023/12/18 13:29:45;;;;;;;2.85;2.60;;;24.20;25.90;;;;;;4951109;28;46493;-83
2023/12/18 13:32:11;;;;;;;3.10;2.80;;;24.20;25.90;;;;;;4941210;28;45359;-83
2023/12/18 13:34:36;;;;;;;2.70;2.50;;;24.20;25.90;;;;;;4935560;28;44827;-82
2023/12/18 13:37:03;;;;;;;2.80;2.47;;;24.20;25.90;;;;;;4948498;28;45115;-82
2023/12/18 13:39:28;;;;;;;3.70;2.70;;;24.30;25.90;;;;;;4947199;28;46468;-82
2023/12/18 13:41:59;;;;;;;3.30;2.70;;;24.30;25.90;;;;;;4946329;28;45513;-82
2023/12/18 13:44:25;;;;;;;3.10;2.70;;;24.30;25.90;;;;;;4954676;28;45775;-83
2023/12/18 13:46:51;;;;;;;2.55;2.35;;;24.30;25.90;;;;;;4943660;28;45495;-82
2023/12/18 13:49:17;;;;;;;3.30;2.60;;;24.30;25.90;;;;;;4964629;28;45556;-83
2023/12/18 13:51:43;;;;;;;3.38;2.72;;;24.30;25.90;;;;;;4945454;28;45608;-83
2023/12/18 13:54:09;;;;;;;3.30;2.60;;;24.30;25.90;;;;;;4950608;28;46234;-81
2023/12/18 13:56:36;;;;;;;2.87;2.60;;;24.40;25.90;;;;;;4941074;28;45243;-82
2023/12/18 13:59:02;;;;;;;3.08;2.70;;;24.40;25.90;;;;;;4951830;28;45231;-82
2023/12/18 14:01:28;;;;;;;2.92;2.63;;;24.40;25.90;;;;;;4956339;28;45323;-82
2023/12/18 14:03:55;;;;;;;3.75;2.60;;;24.40;25.90;;;;;;4971151;28;45321;-82
2023/12/18 14:06:21;;;;;;;3.78;2.60;;;24.40;25.80;;;;;;4923458;28;45465;-82
2023/12/18 14:08:47;;;;;;;3.22;2.67;;;24.40;25.90;;;;;;4965839;28;46131;-82
2023/12/18 14:11:13;;;;;;;3.00;2.70;;;24.40;25.80;;;;;;4925738;28;45272;-82
2023/12/18 14:13:38;;;;;;;3.57;2.90;;;24.40;25.90;;;;;;4966621;28;45865;-81
2023/12/18 14:16:05;;;;;;;4.10;2.60;;;24.40;25.80;;;;;;4946268;28;45676;-82
2023/12/18 14:18:32;;;;;;;5.40;2.88;;;24.40;25.80;;;;;;4966036;28;45295;-82
2023/12/18 14:20:58;;;;;;;5.65;3.00;;;24.40;25.80;;;;;;4940856;28;45072;-82
2023/12/18 14:23:24;;;;;;;8.05;3.03;;;24.40;25.80;;;;;;4966823;28;45820;-82
2023/12/18 14:25:51;;;;;;;7.53;2.80;;;24.40;25.80;;;;;;4929318;28;44785;-82
2023/12/18 14:28:17;;;;;;;8.13;2.93;;;24.40;25.80;;;;;;4935130;28;46274;-82
2023/12/18 14:30:44;;;;;;;6.75;3.10;;;24.40;25.80;;;;;;4943442;28;45458;-82
2023/12/18 14:33:09;;;;;;;9.47;3.00;;;24.50;25.90;;;;;;4981172;28;45061;-81
2023/12/18 14:35:35;;;;;;;5.90;2.60;;;24.50;25.90;;;;;;4960128;28;45316;-82
2023/12/18 14:38:01;;;;;;;6.10;2.90;;;24.50;25.90;;;;;;4932622;28;46173;-82
2023/12/18 14:40:27;;;;;;;4.53;2.90;;;24.50;25.90;;;;;;4960352;28;45336;-81
2023/12/18 14:42:53;;;;;;;4.97;2.83;;;24.50;25.90;;;;;;4965455;28;45871;-81
2023/12/18 14:45:18;;;;;;;5.80;2.97;;;24.50;25.90;;;;;;4956483;28;45387;-81
2023/12/18 14:47:44;;;;;;;4.67;2.93;;;24.50;25.90;;;;;;4951681;28;45206;-82
2023/12/18 14:50:11;;;;;;;5.40;2.88;;;24.50;25.90;;;;;;4980400;28;45224;-83
2023/12/18 14:52:37;;;;;;;4.90;3.03;;;24.50;25.90;;;;;;4953130;28;45946;-82
2023/12/18 14:55:04;;;;;;;7.07;2.90;;;24.50;25.90;;;;;;4950210;28;45566;-80
2023/12/18 14:57:30;;;;;;;3.92;2.80;;;24.50;25.90;;;;;;4967268;28;46027;-82
2023/12/18 14:59:57;;;;;;;5.00;2.50;;;24.50;25.90;;;;;;4951547;28;45257;-82
2023/12/18 15:02:22;;;;;;;6.03;3.08;;;24.50;25.90;;;;;;4974264;28;45241;-82
2023/12/18 15:04:48;;;;;;;5.00;2.70;;;24.50;25.90;;;;;;4923393;28;45293;-82
2023/12/18 15:07:14;;;;;;;5.67;3.00;;;24.50;25.90;;;;;;4950958;28;46162;-81
2023/12/18 15:09:41;;;;;;;6.07;2.87;;;24.50;25.90;;;;;;4970160;28;45037;-82
2023/12/18 15:12:07;;;;;;;4.93;2.65;;;24.50;25.90;;;;;;4948755;28;45577;-82
2023/12/18 15:14:32;;;;;;;4.18;2.70;;;24.50;25.90;;;;;;4968579;28;45420;-82
2023/12/18 15:17:04;;;;;;;2.65;2.20;;;24.50;25.90;;;;;;4942289;28;46325;-82
2023/12/18 15:19:40;;;;;;;4.38;2.60;;;24.60;25.90;;;;;;4937458;28;45188;-81
2023/12/18 15:22:09;;;;;;;3.92;2.70;;;24.50;25.90;;;;;;4944344;28;45758;-81
2023/12/18 15:24:38;;;;;;;4.00;2.65;;;24.50;25.90;;;;;;4954758;28;45846;-82
2023/12/18 15:27:07;;;;;;;4.70;2.40;;;24.50;25.90;;;;;;4967498;28;46096;-81
2023/12/18 15:29:33;;;;;;;3.58;2.70;;;24.50;25.90;;;;;;4954280;28;45303;-82
2023/12/18 15:31:59;;;;;;;3.70;2.50;;;24.50;25.90;;;;;;4959033;28;45452;-82
2023/12/18 15:34:25;;;;;;;3.27;2.43;;;24.50;25.90;;;;;;4923802;28;44839;-82
2023/12/18 15:36:50;;;;;;;5.07;2.60;;;24.60;25.90;;;;;;4932516;28;46220;-81
2023/12/18 15:39:16;;;;;;;3.77;2.63;;;24.50;25.90;;;;;;4968222;28;45139;-81
2023/12/18 15:41:43;;;;;;;3.00;2.40;;;24.50;25.90;;;;;;4950275;28;45598;-81
2023/12/18 15:44:09;;;;;;;3.33;2.60;;;24.50;25.90;;;;;;4954827;28;45657;-82
2023/12/18 15:46:35;;;;;;;5.25;2.95;;;24.60;25.90;;;;;;4957517;28;45262;-82
2023/12/18 15:49:01;;;;;;;3.53;2.92;;;24.50;25.90;;;;;;4920297;28;45658;-82
2023/12/18 15:51:28;;;;;;;3.80;3.40;;;24.50;25.90;;;;;;4958715;28;45258;-82
2023/12/18 15:53:54;;;;;;;3.90;3.50;;;24.50;25.90;;;;;;4983445;28;45832;-81
2023/12/18 15:56:20;;;;;;;5.15;4.28;;;24.50;25.90;;;;;;4961719;28;45357;-81
2023/12/18 15:58:46;;;;;;;5.05;4.20;;;24.50;25.90;;;;;;4965444;28;46625;-82
2023/12/18 16:01:12;;;;;;;5.73;4.73;;;24.50;25.90;;;;;;4944642;28;45331;-83
2023/12/18 16:03:39;;;;;;;5.73;4.47;;;24.50;25.90;;;;;;4938392;28;45475;-82
2023/12/18 16:06:04;;;;;;;7.72;5.03;;;24.50;25.90;;;;;;4951216;28;47273;-82
2023/12/18 16:08:31;;;;;;;5.85;4.70;;;24.50;25.90;;;;;;4956313;28;45278;-82
2023/12/18 16:10:57;;;;;;;5.50;4.80;;;24.50;25.90;;;;;;4966339;28;45554;-82
2023/12/18 16:13:22;;;;;;;5.60;4.85;;;24.50;25.90;;;;;;4964365;28;45292;-82
2023/12/18 16:15:48;;;;;;;6.68;5.07;;;24.50;25.90;;;;;;4949858;28;46338;-82
2023/12/18 16:18:14;;;;;;;5.32;4.80;;;24.50;25.90;;;;;;4938206;28;45453;-82
2023/12/18 16:20:40;;;;;;;5.80;4.97;;;24.50;25.90;;;;;;4965741;28;45422;-82
2023/12/18 16:23:06;;;;;;;7.15;5.05;;;24.50;25.90;;;;;;4952626;28;44916;-82
2023/12/18 16:25:32;;;;;;;8.18;5.00;;;24.50;26.10;;;;;;4962916;28;46693;-82
2023/12/18 16:27:58;;;;;;;5.57;4.97;;;24.50;25.90;;;;;;4957797;28;45522;-82
2023/12/18 16:30:24;;;;;;;5.97;5.03;;;24.50;25.90;;;;;;4962431;28;45239;-82
2023/12/18 16:32:51;;;;;;;7.53;4.60;;;24.50;25.90;;;;;;4957308;28;45216;-81
2023/12/18 16:35:17;;;;;;;6.10;4.82;;;24.40;25.90;;;;;;4979800;28;45516;-82
2023/12/18 16:37:45;;;;;;;5.43;4.73;;;24.50;25.90;;;;;;4951576;28;45313;-82
2023/12/18 16:40:11;;;;;;;7.22;5.28;;;24.50;25.90;;;;;;4949491;28;45515;-81
2023/12/18 16:42:37;;;;;;;5.68;5.00;;;24.50;25.90;;;;;;4950379;28;45338;-81
2023/12/18 16:45:03;;;;;;;6.07;4.65;;;24.40;25.90;;;;;;4953576;28;46326;-81